createdAt,value
2022-11-27T00:00:57.387Z,1004.76
2022-11-27T00:01:57.612Z,1004.70
2022-11-27T00:02:57.571Z,1004.70
2022-11-27T00:03:57.457Z,1004.65
2022-11-27T00:04:57.331Z,1004.65
2022-11-27T00:05:57.313Z,1004.63
2022-11-27T00:06:57.320Z,1004.64
2022-11-27T00:07:57.328Z,1004.68
2022-11-27T00:08:57.274Z,1004.67
2022-11-27T00:09:57.264Z,1004.66
2022-11-27T00:10:57.299Z,1004.69
2022-11-27T00:11:57.253Z,1004.66
2022-11-27T00:12:57.233Z,1004.64
2022-11-27T00:13:57.428Z,1004.66
2022-11-27T00:14:57.215Z,1004.66
2022-11-27T00:15:57.298Z,1004.66
2022-11-27T00:16:57.178Z,1004.61
2022-11-27T00:17:57.160Z,1004.60
2022-11-27T00:18:57.154Z,1004.63
2022-11-27T00:19:57.139Z,1004.64
2022-11-27T00:20:57.123Z,1004.63
2022-11-27T00:21:57.139Z,1004.60
2022-11-27T00:22:57.104Z,1004.61
2022-11-27T00:24:57.264Z,1004.57
2022-11-27T00:25:57.047Z,1004.53
2022-11-27T00:26:57.027Z,1004.49
2022-11-27T00:27:57.028Z,1004.47
2022-11-27T00:28:57.001Z,1004.45
2022-11-27T00:29:56.988Z,1004.38
2022-11-27T00:30:57.035Z,1004.35
2022-11-27T00:31:56.977Z,1004.32
2022-11-27T00:32:56.949Z,1004.28
2022-11-27T00:33:56.929Z,1004.25
2022-11-27T00:34:56.944Z,1004.17
2022-11-27T00:35:56.916Z,1004.18
2022-11-27T00:37:56.930Z,1004.15
2022-11-27T00:38:56.902Z,1004.20
2022-11-27T00:39:56.894Z,1004.15
2022-11-27T00:40:56.846Z,1004.15
2022-11-27T00:41:56.815Z,1004.10
2022-11-27T00:42:56.819Z,1004.10
2022-11-27T00:43:56.817Z,1004.11
2022-11-27T00:44:56.793Z,1004.05
2022-11-27T00:45:57.037Z,1004.08
2022-11-27T00:46:56.815Z,1004.06
2022-11-27T00:47:56.965Z,1004.04
2022-11-27T00:48:56.753Z,1004.07
2022-11-27T00:49:56.709Z,1004.11
2022-11-27T00:50:56.734Z,1004.09
2022-11-27T00:51:56.713Z,1004.11
2022-11-27T00:52:56.690Z,1004.13
2022-11-27T00:53:56.663Z,1004.14
2022-11-27T00:54:56.857Z,1004.15
2022-11-27T00:55:56.653Z,1004.15
2022-11-27T00:56:56.616Z,1004.14
2022-11-27T00:57:56.608Z,1004.11
2022-11-27T00:58:56.593Z,1004.06
2022-11-27T00:59:56.580Z,1004.05
2022-11-27T01:00:56.562Z,1004.00
2022-11-27T01:01:56.626Z,1004.02
2022-11-27T01:02:56.665Z,1004.02
2022-11-27T01:03:56.533Z,1004.00
2022-11-27T01:04:56.569Z,1003.95
2022-11-27T01:05:56.513Z,1003.98
2022-11-27T01:06:56.630Z,1004.02
2022-11-27T01:07:56.583Z,1004.01
2022-11-27T01:08:56.454Z,1004.01
2022-11-27T01:09:56.441Z,1004.05
2022-11-27T01:10:56.428Z,1004.08
2022-11-27T01:11:56.417Z,1004.08
2022-11-27T01:13:56.410Z,1004.10
2022-11-27T01:14:56.376Z,1004.10
2022-11-27T01:15:56.630Z,1004.13
2022-11-27T01:16:56.350Z,1004.09
2022-11-27T01:17:56.343Z,1004.12
2022-11-27T01:18:56.318Z,1004.08
2022-11-27T01:19:56.293Z,1004.05
2022-11-27T01:20:56.294Z,1004.06
2022-11-27T01:21:56.278Z,1004.09
2022-11-27T01:22:56.299Z,1004.05
2022-11-27T01:23:56.457Z,1004.06
2022-11-27T01:24:56.238Z,1004.09
2022-11-27T01:25:56.218Z,1004.07
2022-11-27T01:26:56.258Z,1004.09
2022-11-27T01:27:56.199Z,1004.09
2022-11-27T01:28:56.168Z,1004.08
2022-11-27T01:29:56.167Z,1004.09
2022-11-27T01:30:56.203Z,1004.08
2022-11-27T01:31:56.145Z,1004.09
2022-11-27T01:32:56.137Z,1004.06
2022-11-27T01:33:56.118Z,1004.07
2022-11-27T01:34:56.089Z,1004.06
2022-11-27T01:35:56.076Z,1004.04
2022-11-27T01:36:56.053Z,1004.01
2022-11-27T01:37:56.295Z,1003.98
2022-11-27T01:38:56.064Z,1003.97
2022-11-27T01:39:56.027Z,1003.96
2022-11-27T01:40:56.019Z,1003.94
2022-11-27T01:41:55.997Z,1003.90
2022-11-27T01:42:55.986Z,1003.89
2022-11-27T01:43:55.964Z,1003.88
2022-11-27T01:44:55.969Z,1003.84
2022-11-27T01:45:55.950Z,1003.87
2022-11-27T01:46:56.014Z,1003.85
2022-11-27T01:47:55.923Z,1003.83
2022-11-27T01:48:55.940Z,1003.84
2022-11-27T01:49:56.099Z,1003.82
2022-11-27T01:50:55.882Z,1003.85
2022-11-27T01:51:55.864Z,1003.81
2022-11-27T01:52:55.865Z,1003.83
2022-11-27T01:53:55.844Z,1003.79
2022-11-27T01:54:55.852Z,1003.78
2022-11-27T01:55:55.831Z,1003.79
2022-11-27T01:56:55.784Z,1003.77
2022-11-27T01:57:55.809Z,1003.82
2022-11-27T01:58:55.760Z,1003.78
2022-11-27T01:59:55.979Z,1003.78
2022-11-27T02:00:55.795Z,1003.78
2022-11-27T02:01:55.848Z,1003.76
2022-11-27T02:02:55.791Z,1003.76
2022-11-27T02:03:55.699Z,1003.74
2022-11-27T02:04:55.693Z,1003.75
2022-11-27T02:05:55.669Z,1003.75
2022-11-27T02:06:55.676Z,1003.75
2022-11-27T02:07:55.687Z,1003.77
2022-11-27T02:08:55.621Z,1003.71
2022-11-27T02:09:55.610Z,1003.68
2022-11-27T02:10:55.623Z,1003.65
2022-11-27T02:11:55.599Z,1003.66
2022-11-27T02:12:55.568Z,1003.63
2022-11-27T02:13:55.556Z,1003.61
2022-11-27T02:14:55.543Z,1003.62
2022-11-27T02:15:55.596Z,1003.66
2022-11-27T02:16:55.525Z,1003.66
2022-11-27T02:17:55.561Z,1003.64
2022-11-27T02:18:55.508Z,1003.65
2022-11-27T02:19:55.486Z,1003.64
2022-11-27T02:20:55.472Z,1003.69
2022-11-27T02:21:55.443Z,1003.66
2022-11-27T02:22:55.442Z,1003.69
2022-11-27T02:23:55.624Z,1003.68
2022-11-27T02:24:55.452Z,1003.65
2022-11-27T02:25:55.384Z,1003.67
2022-11-27T02:26:55.389Z,1003.64
2022-11-27T02:27:55.379Z,1003.65
2022-11-27T02:28:55.347Z,1003.64
2022-11-27T02:29:55.352Z,1003.63
2022-11-27T02:30:55.374Z,1003.63
2022-11-27T02:31:55.510Z,1003.63
2022-11-27T02:32:55.312Z,1003.62
2022-11-27T02:33:55.276Z,1003.62
2022-11-27T02:34:55.274Z,1003.63
2022-11-27T02:35:55.254Z,1003.66
2022-11-27T02:38:55.200Z,1003.61
2022-11-27T02:39:55.184Z,1003.60
2022-11-27T02:40:55.182Z,1003.57
2022-11-27T02:41:55.373Z,1003.59
2022-11-27T02:42:55.275Z,1003.55
2022-11-27T02:43:55.141Z,1003.60
2022-11-27T02:44:55.151Z,1003.58
2022-11-27T02:45:55.114Z,1003.60
2022-11-27T02:46:55.227Z,1003.62
2022-11-27T02:47:55.098Z,1003.61
2022-11-27T02:48:55.710Z,1003.59
2022-11-27T02:49:55.051Z,1003.54
2022-11-27T02:51:55.069Z,1003.59
2022-11-27T02:52:55.274Z,1003.59
2022-11-27T02:53:55.022Z,1003.58
2022-11-27T02:54:54.982Z,1003.54
2022-11-27T02:55:54.965Z,1003.57
2022-11-27T02:56:54.960Z,1003.54
2022-11-27T02:57:54.958Z,1003.53
2022-11-27T02:58:55.055Z,1003.49
2022-11-27T02:59:54.910Z,1003.53
2022-11-27T03:00:54.899Z,1003.51
2022-11-27T03:01:54.984Z,1003.51
2022-11-27T03:02:54.949Z,1003.47
2022-11-27T03:03:54.864Z,1003.52
2022-11-27T03:04:54.835Z,1003.49
2022-11-27T03:05:54.826Z,1003.47
2022-11-27T03:06:54.806Z,1003.50
2022-11-27T03:07:54.848Z,1003.47
2022-11-27T03:08:54.788Z,1003.47
2022-11-27T03:09:54.768Z,1003.49
2022-11-27T03:10:54.757Z,1003.51
2022-11-27T03:11:54.739Z,1003.54
2022-11-27T03:12:54.787Z,1003.49
2022-11-27T03:13:54.735Z,1003.52
2022-11-27T03:14:54.820Z,1003.47
2022-11-27T03:15:54.759Z,1003.47
2022-11-27T03:16:54.681Z,1003.44
2022-11-27T03:17:54.851Z,1003.43
2022-11-27T03:18:54.640Z,1003.41
2022-11-27T03:19:54.635Z,1003.41
2022-11-27T03:20:54.614Z,1003.43
2022-11-27T03:22:54.578Z,1003.40
2022-11-27T03:23:54.583Z,1003.38
2022-11-27T03:24:54.562Z,1003.38
2022-11-27T03:25:54.547Z,1003.36
2022-11-27T03:26:54.548Z,1003.34
2022-11-27T03:27:54.510Z,1003.36
2022-11-27T03:28:54.500Z,1003.36
2022-11-27T03:29:54.495Z,1003.36
2022-11-27T03:30:54.694Z,1003.35
2022-11-27T03:31:54.462Z,1003.32
2022-11-27T03:32:54.446Z,1003.32
2022-11-27T03:33:54.432Z,1003.32
2022-11-27T03:34:54.415Z,1003.29
2022-11-27T03:35:54.420Z,1003.30
2022-11-27T03:36:54.414Z,1003.31
2022-11-27T03:37:54.467Z,1003.31
2022-11-27T03:38:54.359Z,1003.32
2022-11-27T03:39:54.336Z,1003.33
2022-11-27T03:40:54.321Z,1003.28
2022-11-27T03:41:54.320Z,1003.28
2022-11-27T03:42:54.292Z,1003.26
2022-11-27T03:43:54.484Z,1003.23
2022-11-27T03:44:54.297Z,1003.22
2022-11-27T03:45:54.275Z,1003.25
2022-11-27T03:46:54.400Z,1003.20
2022-11-27T03:47:54.297Z,1003.22
2022-11-27T03:48:54.215Z,1003.21
2022-11-27T03:49:54.305Z,1003.20
2022-11-27T03:50:54.202Z,1003.14
2022-11-27T03:51:54.170Z,1003.11
2022-11-27T03:52:54.179Z,1003.12
2022-11-27T03:53:54.155Z,1003.07
2022-11-27T03:54:54.182Z,1003.06
2022-11-27T03:55:54.118Z,1003.06
2022-11-27T03:56:54.088Z,1003.06
2022-11-27T03:57:54.078Z,1003.02
2022-11-27T03:58:54.263Z,1003.03
2022-11-27T03:59:54.264Z,1003.04
2022-11-27T04:00:54.042Z,1003.04
2022-11-27T04:01:54.299Z,1003.02
2022-11-27T04:02:59.966Z,1003.01
2022-11-27T04:03:54.170Z,1003.01
2022-11-27T04:04:53.980Z,1002.98
2022-11-27T04:05:53.969Z,1002.98
2022-11-27T04:06:53.948Z,1002.99
2022-11-27T04:07:54.125Z,1003.00
2022-11-27T04:08:53.994Z,1002.97
2022-11-27T04:09:54.165Z,1002.98
2022-11-27T04:10:53.886Z,1002.96
2022-11-27T04:11:53.869Z,1002.93
2022-11-27T04:12:53.887Z,1002.94
2022-11-27T04:13:53.928Z,1002.92
2022-11-27T04:14:53.911Z,1002.96
2022-11-27T04:15:53.918Z,1002.95
2022-11-27T04:16:53.802Z,1002.89
2022-11-27T04:17:53.780Z,1002.91
2022-11-27T04:18:53.792Z,1002.92
2022-11-27T04:19:53.916Z,1002.91
2022-11-27T04:20:53.774Z,1002.97
2022-11-27T04:21:53.763Z,1002.98
2022-11-27T04:22:53.740Z,1003.02
2022-11-27T04:23:53.787Z,1003.01
2022-11-27T04:24:53.685Z,1003.05
2022-11-27T04:25:53.672Z,1003.06
2022-11-27T04:26:53.645Z,1003.06
2022-11-27T04:27:53.635Z,1003.11
2022-11-27T04:28:53.691Z,1003.08
2022-11-27T04:29:53.618Z,1003.09
2022-11-27T04:30:53.639Z,1003.07
2022-11-27T04:31:53.660Z,1003.08
2022-11-27T04:32:53.581Z,1003.03
2022-11-27T04:33:53.545Z,1003.02
2022-11-27T04:34:53.608Z,1003.00
2022-11-27T04:35:53.663Z,1002.99
2022-11-27T04:36:53.516Z,1003.02
2022-11-27T04:37:53.526Z,1003.05
2022-11-27T04:38:53.526Z,1003.00
2022-11-27T04:39:53.459Z,1003.00
2022-11-27T04:40:53.468Z,1002.97
2022-11-27T04:41:53.519Z,1002.95
2022-11-27T04:42:53.652Z,1002.95
2022-11-27T04:43:53.427Z,1002.93
2022-11-27T04:44:53.390Z,1002.95
2022-11-27T04:45:53.389Z,1002.91
2022-11-27T04:46:53.502Z,1002.96
2022-11-27T04:47:53.341Z,1002.96
2022-11-27T04:48:53.337Z,1002.94
2022-11-27T04:49:53.330Z,1002.96
2022-11-27T04:50:53.320Z,1002.98
2022-11-27T04:51:53.422Z,1002.99
2022-11-27T04:52:53.269Z,1002.98
2022-11-27T04:53:53.248Z,1003.00
2022-11-27T04:54:59.570Z,1002.97
2022-11-27T04:55:53.455Z,1002.99
2022-11-27T04:56:53.232Z,1002.98
2022-11-27T04:57:53.238Z,1002.96
2022-11-27T04:58:53.223Z,1003.01
2022-11-27T04:59:53.185Z,1003.03
2022-11-27T05:00:53.212Z,1003.00
2022-11-27T05:01:53.382Z,1003.02
2022-11-27T05:02:53.251Z,1003.03
2022-11-27T05:03:53.160Z,1003.01
2022-11-27T05:04:53.134Z,1003.01
2022-11-27T05:05:53.292Z,1002.98
2022-11-27T05:06:53.142Z,1002.97
2022-11-27T05:07:53.222Z,1002.96
2022-11-27T05:08:53.038Z,1002.99
2022-11-27T05:09:53.032Z,1002.96
2022-11-27T05:10:53.299Z,1002.94
2022-11-27T05:11:53.041Z,1002.95
2022-11-27T05:13:53.012Z,1002.94
2022-11-27T05:14:52.953Z,1002.95
2022-11-27T05:15:53.021Z,1002.98
2022-11-27T05:16:52.918Z,1002.95
2022-11-27T05:17:52.942Z,1002.97
2022-11-27T05:18:52.901Z,1002.98
2022-11-27T05:19:52.978Z,1002.99
2022-11-27T05:20:52.867Z,1002.98
2022-11-27T05:21:52.861Z,1002.98
2022-11-27T05:22:52.853Z,1002.95
2022-11-27T05:23:52.955Z,1002.95
2022-11-27T05:24:52.807Z,1002.98
2022-11-27T05:25:52.809Z,1002.97
2022-11-27T05:26:52.808Z,1002.96
2022-11-27T05:27:52.841Z,1002.98
2022-11-27T05:28:52.770Z,1003.00
2022-11-27T05:29:52.775Z,1002.98
2022-11-27T05:30:53.027Z,1002.94
2022-11-27T05:31:52.856Z,1002.93
2022-11-27T05:32:52.758Z,1002.94
2022-11-27T05:33:52.722Z,1002.89
2022-11-27T05:34:52.873Z,1002.86
2022-11-27T05:35:52.879Z,1002.83
2022-11-27T05:36:52.630Z,1002.82
2022-11-27T05:37:52.614Z,1002.85
2022-11-27T05:38:52.610Z,1002.87
2022-11-27T05:39:52.702Z,1002.84
2022-11-27T05:40:52.589Z,1002.85
2022-11-27T05:41:52.557Z,1002.86
2022-11-27T05:42:52.569Z,1002.84
2022-11-27T05:43:52.520Z,1002.85
2022-11-27T05:44:57.788Z,1002.84
2022-11-27T05:45:52.507Z,1002.82
2022-11-27T05:46:52.530Z,1002.80
2022-11-27T05:47:52.472Z,1002.80
2022-11-27T05:48:52.464Z,1002.78
2022-11-27T05:49:52.643Z,1002.79
2022-11-27T05:50:52.545Z,1002.76
2022-11-27T05:51:52.422Z,1002.75
2022-11-27T05:52:52.594Z,1002.69
2022-11-27T05:53:52.383Z,1002.72
2022-11-27T05:54:52.369Z,1002.72
2022-11-27T05:56:52.488Z,1002.70
2022-11-27T05:57:52.341Z,1002.67
2022-11-27T05:59:52.331Z,1002.71
2022-11-27T06:00:52.276Z,1002.70
2022-11-27T06:01:52.334Z,1002.73
2022-11-27T06:02:52.401Z,1002.71
2022-11-27T06:03:52.291Z,1002.74
2022-11-27T06:04:52.250Z,1002.71
2022-11-27T06:05:52.189Z,1002.72
2022-11-27T06:06:52.200Z,1002.71
2022-11-27T06:07:52.254Z,1002.71
2022-11-27T06:08:52.192Z,1002.74
2022-11-27T06:09:52.142Z,1002.72
2022-11-27T06:10:52.138Z,1002.73
2022-11-27T06:11:52.117Z,1002.72
2022-11-27T06:12:52.278Z,1002.78
2022-11-27T06:13:52.073Z,1002.74
2022-11-27T06:14:52.077Z,1002.73
2022-11-27T06:15:52.053Z,1002.76
2022-11-27T06:16:52.122Z,1002.74
2022-11-27T06:17:52.025Z,1002.75
2022-11-27T06:18:52.216Z,1002.75
2022-11-27T06:19:51.995Z,1002.73
2022-11-27T06:20:53.217Z,1002.71
2022-11-27T06:21:52.064Z,1002.67
2022-11-27T06:22:51.969Z,1002.65
2022-11-27T06:23:51.966Z,1002.64
2022-11-27T06:24:51.916Z,1002.61
2022-11-27T06:25:51.935Z,1002.62
2022-11-27T06:26:51.917Z,1002.58
2022-11-27T06:27:51.918Z,1002.61
2022-11-27T06:28:51.978Z,1002.61
2022-11-27T06:29:51.888Z,1002.58
2022-11-27T06:30:51.833Z,1002.57
2022-11-27T06:31:51.893Z,1002.56
2022-11-27T06:32:51.814Z,1002.55
2022-11-27T06:33:51.847Z,1002.53
2022-11-27T06:34:51.982Z,1002.56
2022-11-27T06:35:51.959Z,1002.54
2022-11-27T06:36:51.749Z,1002.58
2022-11-27T06:37:51.732Z,1002.53
2022-11-27T06:38:51.716Z,1002.55
2022-11-27T06:39:51.704Z,1002.50
2022-11-27T06:40:51.691Z,1002.53
2022-11-27T06:41:51.708Z,1002.50
2022-11-27T06:42:51.649Z,1002.46
2022-11-27T06:43:51.683Z,1002.47
2022-11-27T06:44:51.731Z,1002.47
2022-11-27T06:45:51.845Z,1002.42
2022-11-27T06:46:51.644Z,1002.41
2022-11-27T06:47:51.590Z,1002.40
2022-11-27T06:49:51.579Z,1002.38
2022-11-27T06:50:51.545Z,1002.34
2022-11-27T06:51:51.529Z,1002.30
2022-11-27T06:52:51.526Z,1002.32
2022-11-27T06:53:51.502Z,1002.31
2022-11-27T06:54:51.490Z,1002.30
2022-11-27T06:55:51.472Z,1002.24
2022-11-27T06:56:51.490Z,1002.27
2022-11-27T06:57:51.465Z,1002.27
2022-11-27T06:58:51.435Z,1002.22
2022-11-27T06:59:51.402Z,1002.22
2022-11-27T07:00:51.558Z,1002.23
2022-11-27T07:01:51.464Z,1002.18
2022-11-27T07:02:51.414Z,1002.17
2022-11-27T07:03:51.745Z,1002.17
2022-11-27T07:04:51.326Z,1002.20
2022-11-27T07:05:51.312Z,1002.20
2022-11-27T07:06:51.299Z,1002.19
2022-11-27T07:09:51.292Z,1002.21
2022-11-27T07:10:51.262Z,1002.22
2022-11-27T07:11:51.231Z,1002.22
2022-11-27T07:12:51.236Z,1002.23
2022-11-27T07:13:51.189Z,1002.25
2022-11-27T07:14:51.187Z,1002.27
2022-11-27T07:15:51.198Z,1002.26
2022-11-27T07:16:51.411Z,1002.24
2022-11-27T07:17:51.131Z,1002.18
2022-11-27T07:18:51.190Z,1002.19
2022-11-27T07:19:51.099Z,1002.22
2022-11-27T07:20:56.074Z,1002.21
2022-11-27T07:21:51.285Z,1002.19
2022-11-27T07:22:51.054Z,1002.14
2022-11-27T07:24:51.032Z,1002.16
2022-11-27T07:25:51.010Z,1002.13
2022-11-27T07:26:51.399Z,1002.15
2022-11-27T07:27:50.973Z,1002.17
2022-11-27T07:28:50.975Z,1002.20
2022-11-27T07:29:51.008Z,1002.18
2022-11-27T07:30:50.930Z,1002.21
2022-11-27T07:31:51.397Z,1002.21
2022-11-27T07:32:51.018Z,1002.26
2022-11-27T07:33:50.887Z,1002.26
2022-11-27T07:34:50.870Z,1002.26
2022-11-27T07:35:51.104Z,1002.28
2022-11-27T07:36:50.856Z,1002.28
2022-11-27T07:38:50.813Z,1002.27
2022-11-27T07:40:03.659Z,1002.21
2022-11-27T07:40:52.045Z,1002.21
2022-11-27T07:41:50.776Z,1002.21
2022-11-27T07:42:50.783Z,1002.23
2022-11-27T07:43:50.760Z,1002.21
2022-11-27T07:44:50.741Z,1002.16
2022-11-27T07:45:50.831Z,1002.17
2022-11-27T07:46:50.703Z,1002.14
2022-11-27T07:47:50.677Z,1002.16
2022-11-27T07:48:50.789Z,1002.14
2022-11-27T07:49:50.650Z,1002.16
2022-11-27T07:50:50.663Z,1002.13
2022-11-27T07:51:50.869Z,1002.13
2022-11-27T07:52:50.625Z,1002.12
2022-11-27T07:53:50.614Z,1002.14
2022-11-27T07:54:50.577Z,1002.15
2022-11-27T07:55:50.579Z,1002.14
2022-11-27T07:56:50.549Z,1002.10
2022-11-27T07:57:50.617Z,1002.11
2022-11-27T07:58:50.566Z,1002.10
2022-11-27T07:59:50.509Z,1002.13
2022-11-27T08:00:50.501Z,1002.11
2022-11-27T08:01:50.480Z,1002.10
2022-11-27T08:02:50.519Z,1002.13
2022-11-27T08:03:50.498Z,1002.11
2022-11-27T08:04:50.574Z,1002.15
2022-11-27T08:05:50.416Z,1002.10
2022-11-27T08:06:50.432Z,1002.03
2022-11-27T08:07:50.433Z,1002.05
2022-11-27T08:08:50.465Z,1002.05
2022-11-27T08:09:50.357Z,1002.03
2022-11-27T08:10:50.347Z,1001.98
2022-11-27T08:11:50.345Z,1001.99
2022-11-27T08:12:50.330Z,1002.01
2022-11-27T08:13:50.505Z,1001.99
2022-11-27T08:14:50.312Z,1002.00
2022-11-27T08:15:50.472Z,1001.96
2022-11-27T08:16:50.384Z,1001.99
2022-11-27T08:17:50.246Z,1002.00
2022-11-27T08:18:50.268Z,1001.94
2022-11-27T08:19:50.207Z,1001.96
2022-11-27T08:20:50.308Z,1001.92
2022-11-27T08:21:50.283Z,1001.90
2022-11-27T08:22:50.362Z,1001.88
2022-11-27T08:23:50.372Z,1001.85
2022-11-27T08:24:50.144Z,1001.87
2022-11-27T08:25:50.137Z,1001.84
2022-11-27T08:26:50.109Z,1001.79
2022-11-27T08:27:50.110Z,1001.83
2022-11-27T08:29:50.105Z,1001.70
2022-11-27T08:30:50.055Z,1001.69
2022-11-27T08:31:50.183Z,1001.66
2022-11-27T08:32:50.235Z,1001.63
2022-11-27T08:33:50.241Z,1001.60
2022-11-27T08:34:49.998Z,1001.62
2022-11-27T08:35:50.004Z,1001.62
2022-11-27T08:36:50.106Z,1001.58
2022-11-27T08:37:49.968Z,1001.60
2022-11-27T08:38:50.079Z,1001.62
2022-11-27T08:39:49.943Z,1001.58
2022-11-27T08:40:49.954Z,1001.60
2022-11-27T08:41:49.924Z,1001.58
2022-11-27T08:42:49.903Z,1001.60
2022-11-27T08:43:49.915Z,1001.56
2022-11-27T08:44:49.903Z,1001.56
2022-11-27T08:45:49.897Z,1001.57
2022-11-27T08:46:49.856Z,1001.57
2022-11-27T08:47:49.836Z,1001.56
2022-11-27T08:48:49.828Z,1001.57
2022-11-27T08:49:49.811Z,1001.60
2022-11-27T08:50:49.821Z,1001.62
2022-11-27T08:51:49.984Z,1001.60
2022-11-27T08:52:49.879Z,1001.65
2022-11-27T08:53:49.804Z,1001.70
2022-11-27T08:54:53.221Z,1001.66
2022-11-27T08:55:49.768Z,1001.59
2022-11-27T08:56:49.731Z,1001.63
2022-11-27T08:57:49.727Z,1001.63
2022-11-27T08:58:49.826Z,1001.64
2022-11-27T08:59:49.683Z,1001.68
2022-11-27T09:00:49.734Z,1001.74
2022-11-27T09:01:49.702Z,1001.78
2022-11-27T09:02:49.650Z,1001.75
2022-11-27T09:03:49.719Z,1001.65
2022-11-27T09:04:49.634Z,1001.66
2022-11-27T09:05:49.632Z,1001.64
2022-11-27T09:06:51.963Z,1001.64
2022-11-27T09:07:49.728Z,1001.57
2022-11-27T09:08:49.750Z,1001.58
2022-11-27T09:09:49.585Z,1001.63
2022-11-27T09:10:49.606Z,1001.65
2022-11-27T09:11:49.573Z,1001.67
2022-11-27T09:12:49.560Z,1001.66
2022-11-27T09:13:49.582Z,1001.67
2022-11-27T09:14:49.547Z,1001.71
2022-11-27T09:15:49.557Z,1001.65
2022-11-27T09:16:49.627Z,1001.63
2022-11-27T09:17:49.538Z,1001.63
2022-11-27T09:18:49.527Z,1001.63
2022-11-27T09:19:49.529Z,1001.61
2022-11-27T09:20:49.522Z,1001.61
2022-11-27T09:21:49.516Z,1001.55
2022-11-27T09:22:49.522Z,1001.56
2022-11-27T09:23:49.520Z,1001.50
2022-11-27T09:24:49.845Z,1001.49
2022-11-27T09:25:49.521Z,1001.52
2022-11-27T09:26:49.483Z,1001.53
2022-11-27T09:27:49.465Z,1001.52
2022-11-27T09:28:49.517Z,1001.53
2022-11-27T09:29:49.516Z,1001.57
2022-11-27T09:30:49.547Z,1001.60
2022-11-27T09:31:49.538Z,1001.58
2022-11-27T09:32:49.455Z,1001.63
2022-11-27T09:33:49.441Z,1001.65
2022-11-27T09:34:49.552Z,1001.65
2022-11-27T09:35:49.495Z,1001.68
2022-11-27T09:36:49.448Z,1001.71
2022-11-27T09:37:49.431Z,1001.67
2022-11-27T09:38:49.463Z,1001.67
2022-11-27T09:39:49.414Z,1001.66
2022-11-27T09:40:49.544Z,1001.65
2022-11-27T09:41:49.432Z,1001.60
2022-11-27T09:42:49.434Z,1001.63
2022-11-27T09:43:49.439Z,1001.65
2022-11-27T09:44:49.480Z,1001.62
2022-11-27T09:45:49.873Z,1001.66
2022-11-27T09:46:49.420Z,1001.68
2022-11-27T09:48:49.385Z,1001.67
2022-11-27T09:49:49.384Z,1001.62
2022-11-27T09:50:49.393Z,1001.59
2022-11-27T09:51:49.377Z,1001.56
2022-11-27T09:52:49.366Z,1001.57
2022-11-27T09:53:49.373Z,1001.59
2022-11-27T09:54:52.366Z,1001.57
2022-11-27T09:55:49.363Z,1001.54
2022-11-27T09:56:49.545Z,1001.54
2022-11-27T09:57:49.366Z,1001.50
2022-11-27T09:58:49.350Z,1001.43
2022-11-27T09:59:49.352Z,1001.43
2022-11-27T10:00:49.343Z,1001.47
2022-11-27T10:01:51.251Z,1001.39
2022-11-27T10:02:49.585Z,1001.41
2022-11-27T10:03:49.332Z,1001.34
2022-11-27T10:05:12.932Z,1001.32
2022-11-27T10:05:49.357Z,1001.30
2022-11-27T10:06:49.338Z,1001.26
2022-11-27T10:07:49.384Z,1001.27
2022-11-27T10:08:49.339Z,1001.31
2022-11-27T10:09:49.515Z,1001.30
2022-11-27T10:10:49.312Z,1001.26
2022-11-27T10:11:49.332Z,1001.22
2022-11-27T10:12:49.454Z,1001.22
2022-11-27T10:13:49.324Z,1001.21
2022-11-27T10:14:49.309Z,1001.24
2022-11-27T10:15:49.314Z,1001.22
2022-11-27T10:16:49.390Z,1001.19
2022-11-27T10:17:49.291Z,1001.19
2022-11-27T10:18:49.319Z,1001.21
2022-11-27T10:19:49.359Z,1001.18
2022-11-27T10:20:49.292Z,1001.18
2022-11-27T10:21:49.285Z,1001.15
2022-11-27T10:22:49.272Z,1001.12
2022-11-27T10:23:49.275Z,1001.14
2022-11-27T10:24:49.270Z,1001.11
2022-11-27T10:25:49.272Z,1001.04
2022-11-27T10:26:49.260Z,1001.05
2022-11-27T10:27:49.265Z,1001.01
2022-11-27T10:28:49.369Z,1001.05
2022-11-27T10:29:50.466Z,1001.03
2022-11-27T10:30:49.250Z,1001.03
2022-11-27T10:31:49.324Z,1000.97
2022-11-27T10:32:56.803Z,1000.94
2022-11-27T10:33:49.302Z,1000.93
2022-11-27T10:34:49.439Z,1000.94
2022-11-27T10:35:49.210Z,1000.90
2022-11-27T10:36:49.211Z,1000.90
2022-11-27T10:37:49.223Z,1000.87
2022-11-27T10:38:49.327Z,1000.88
2022-11-27T10:39:49.206Z,1000.86
2022-11-27T10:40:49.417Z,1000.84
2022-11-27T10:41:50.179Z,1000.83
2022-11-27T10:42:49.167Z,1000.79
2022-11-27T10:43:49.176Z,1000.81
2022-11-27T10:44:49.296Z,1000.74
2022-11-27T10:45:49.271Z,1000.71
2022-11-27T10:46:49.177Z,1000.70
2022-11-27T10:47:49.155Z,1000.69
2022-11-27T10:48:49.153Z,1000.67
2022-11-27T10:49:49.142Z,1000.63
2022-11-27T10:50:49.133Z,1000.65
2022-11-27T10:51:49.154Z,1000.60
2022-11-27T10:52:52.371Z,1000.56
2022-11-27T10:53:49.147Z,1000.58
2022-11-27T10:54:49.093Z,1000.58
2022-11-27T10:55:49.094Z,1000.51
2022-11-27T10:56:49.086Z,1000.52
2022-11-27T10:57:49.291Z,1000.52
2022-11-27T10:58:49.082Z,1000.49
2022-11-27T10:59:49.086Z,1000.41
2022-11-27T11:00:49.285Z,1000.41
2022-11-27T11:01:49.178Z,1000.40
2022-11-27T11:02:49.164Z,1000.37
2022-11-27T11:03:49.053Z,1000.36
2022-11-27T11:05:09.183Z,1000.32
2022-11-27T11:06:18.758Z,1000.27
2022-11-27T11:06:49.008Z,1000.29
2022-11-27T11:07:49.058Z,1000.28
2022-11-27T11:08:48.998Z,1000.23
2022-11-27T11:09:48.994Z,1000.24
2022-11-27T11:10:48.986Z,1000.26
2022-11-27T11:11:49.050Z,1000.27
2022-11-27T11:12:49.009Z,1000.25
2022-11-27T11:13:48.957Z,1000.21
2022-11-27T11:14:48.951Z,1000.17
2022-11-27T11:15:51.828Z,1000.15
2022-11-27T11:16:54.989Z,1000.16
2022-11-27T11:17:49.059Z,1000.13
2022-11-27T11:18:49.022Z,1000.15
2022-11-27T11:19:48.969Z,1000.14
2022-11-27T11:20:48.901Z,1000.11
2022-11-27T11:21:48.959Z,1000.12
2022-11-27T11:22:48.917Z,1000.07
2022-11-27T11:23:48.895Z,1000.06
2022-11-27T11:24:48.882Z,1000.03
2022-11-27T11:25:48.879Z,1000.00
2022-11-27T11:26:48.874Z,999.99
2022-11-27T11:27:49.065Z,999.98
2022-11-27T11:28:48.845Z,1000.00
2022-11-27T11:29:48.836Z,999.96
2022-11-27T11:30:48.852Z,999.91
2022-11-27T11:31:48.985Z,999.93
2022-11-27T11:32:48.811Z,999.91
2022-11-27T11:33:48.923Z,999.87
2022-11-27T11:34:48.806Z,999.89
2022-11-27T11:35:48.811Z,999.88
2022-11-27T11:36:48.783Z,999.89
2022-11-27T11:37:48.966Z,999.87
2022-11-27T11:38:48.786Z,999.87
2022-11-27T11:39:48.761Z,999.83
2022-11-27T11:40:48.752Z,999.78
2022-11-27T11:41:48.747Z,999.80
2022-11-27T11:42:48.778Z,999.80
2022-11-27T11:43:48.719Z,999.77
2022-11-27T11:44:48.717Z,999.77
2022-11-27T11:45:48.853Z,999.79
2022-11-27T11:46:48.700Z,999.76
2022-11-27T11:47:48.691Z,999.76
2022-11-27T11:48:48.683Z,999.72
2022-11-27T11:49:48.787Z,999.71
2022-11-27T11:50:48.683Z,999.65
2022-11-27T11:51:48.889Z,999.67
2022-11-27T11:52:48.849Z,999.66
2022-11-27T11:53:48.842Z,999.64
2022-11-27T11:54:48.836Z,999.58
2022-11-27T11:55:48.617Z,999.57
2022-11-27T11:56:48.661Z,999.51
2022-11-27T11:57:48.680Z,999.51
2022-11-27T11:58:48.642Z,999.49
2022-11-27T11:59:48.576Z,999.49
2022-11-27T12:01:11.821Z,999.46
2022-11-27T12:01:48.669Z,999.45
2022-11-27T12:02:48.635Z,999.40
2022-11-27T12:03:48.749Z,999.34
2022-11-27T12:04:48.799Z,999.33
2022-11-27T12:05:48.721Z,999.26
2022-11-27T12:06:48.514Z,999.32
2022-11-27T12:07:52.221Z,999.25
2022-11-27T12:08:48.502Z,999.26
2022-11-27T12:09:48.487Z,999.22
2022-11-27T12:10:48.488Z,999.24
2022-11-27T12:11:48.505Z,999.21
2022-11-27T12:12:48.467Z,999.21
2022-11-27T12:13:48.459Z,999.27
2022-11-27T12:14:48.434Z,999.26
2022-11-27T12:15:48.427Z,999.27
2022-11-27T12:16:48.956Z,999.31
2022-11-27T12:17:48.436Z,999.30
2022-11-27T12:18:48.428Z,999.34
2022-11-27T12:19:48.408Z,999.34
2022-11-27T12:20:48.396Z,999.37
2022-11-27T12:21:48.545Z,999.36
2022-11-27T12:22:48.357Z,999.39
2022-11-27T12:24:48.334Z,999.36
2022-11-27T12:25:48.335Z,999.31